createdAt,value
2023-02-09T00:01:25.266Z,0.70
2023-02-09T00:03:53.059Z,0.70
2023-02-09T00:06:23.813Z,0.60
2023-02-09T00:08:50.970Z,0.70
2023-02-09T00:11:49.555Z,0.60
2023-02-09T00:14:21.508Z,0.60
2023-02-09T00:16:49.913Z,0.60
2023-02-09T00:19:17.342Z,0.60
2023-02-09T00:21:44.296Z,0.60
2023-02-09T00:24:11.834Z,0.60
2023-02-09T00:26:39.447Z,0.60
2023-02-09T00:29:07.476Z,0.50
2023-02-09T00:31:35.164Z,0.50
2023-02-09T00:34:02.868Z,0.50
2023-02-09T00:36:30.105Z,0.50
2023-02-09T00:38:57.236Z,0.50
2023-02-09T00:41:42.629Z,0.50
2023-02-09T00:44:11.310Z,0.50
2023-02-09T00:46:38.066Z,0.50
2023-02-09T00:49:05.339Z,0.50
2023-02-09T00:51:32.155Z,0.50
2023-02-09T00:53:58.858Z,0.50
2023-02-09T00:56:25.621Z,0.40
2023-02-09T00:58:52.324Z,0.50
2023-02-09T01:01:19.131Z,0.50
2023-02-09T01:03:46.974Z,0.40
2023-02-09T01:06:13.877Z,0.40
2023-02-09T01:08:40.643Z,0.40
2023-02-09T01:11:13.961Z,0.40
2023-02-09T01:13:41.732Z,0.40
2023-02-09T01:16:12.207Z,0.40
2023-02-09T01:18:39.543Z,0.40
2023-02-09T01:21:20.821Z,0.40
2023-02-09T01:23:47.977Z,0.40
2023-02-09T01:26:16.515Z,0.40
2023-02-09T01:28:43.716Z,0.40
2023-02-09T01:31:31.731Z,0.40
2023-02-09T01:34:02.380Z,0.40
2023-02-09T01:36:31.332Z,0.40
2023-02-09T01:39:02.245Z,0.30
2023-02-09T01:41:29.879Z,0.30
2023-02-09T01:44:01.505Z,0.40
2023-02-09T01:46:34.992Z,0.30
2023-02-09T01:49:26.333Z,0.30
2023-02-09T01:52:05.678Z,0.40
2023-02-09T01:54:37.539Z,0.30
2023-02-09T01:57:10.866Z,0.30
2023-02-09T01:59:41.471Z,0.30
2023-02-09T02:02:10.430Z,0.30
2023-02-09T02:04:39.049Z,0.30
2023-02-09T02:07:18.897Z,0.30
2023-02-09T02:09:46.572Z,0.30
2023-02-09T02:12:14.365Z,0.30
2023-02-09T02:14:41.107Z,0.30
2023-02-09T02:17:36.724Z,0.20
2023-02-09T02:20:55.690Z,0.20
2023-02-09T02:24:00.553Z,0.20
2023-02-09T02:26:42.143Z,0.20
2023-02-09T02:30:03.775Z,0.10
2023-02-09T02:32:50.806Z,0.10
2023-02-09T02:35:40.108Z,0.10
2023-02-09T02:38:22.395Z,0.10
2023-02-09T02:40:56.821Z,0.10
2023-02-09T02:43:43.333Z,0.00
2023-02-09T02:46:23.315Z,0.00
2023-02-09T02:49:06.883Z,0.00
2023-02-09T02:51:39.548Z,0.00
2023-02-09T02:54:14.528Z,0.00
2023-02-09T02:56:47.222Z,0.00
2023-02-09T02:59:22.180Z,0.00
2023-02-09T03:02:06.259Z,0.00
2023-02-09T03:04:36.644Z,-0.10
2023-02-09T03:07:08.402Z,-0.10
2023-02-09T03:09:35.207Z,-0.10
2023-02-09T03:12:38.258Z,-0.10
2023-02-09T03:15:52.974Z,-0.10
2023-02-09T03:18:42.994Z,-0.10
2023-02-09T03:21:29.275Z,-0.10
2023-02-09T03:24:05.267Z,-0.10
2023-02-09T03:26:45.923Z,-0.10
2023-02-09T03:29:15.711Z,-0.10
2023-02-09T03:31:43.174Z,-0.10
2023-02-09T03:34:10.637Z,-0.10
2023-02-09T03:36:40.230Z,-0.10
2023-02-09T03:39:06.930Z,-0.10
2023-02-09T03:41:33.704Z,-0.10
2023-02-09T03:44:18.842Z,-0.10
2023-02-09T03:46:45.682Z,-0.20
2023-02-09T03:49:14.752Z,-0.20
2023-02-09T03:51:42.579Z,-0.20
2023-02-09T03:54:09.474Z,-0.20
2023-02-09T03:56:37.398Z,-0.30
2023-02-09T03:59:05.832Z,-0.30
2023-02-09T04:01:35.683Z,-0.30
2023-02-09T04:04:04.424Z,-0.30
2023-02-09T04:06:34.564Z,-0.30
2023-02-09T04:09:03.368Z,-0.30
2023-02-09T04:11:30.123Z,-0.30
2023-02-09T04:13:57.300Z,-0.30
2023-02-09T04:16:24.676Z,-0.10
2023-02-09T04:18:51.726Z,-0.30
2023-02-09T04:21:18.583Z,-0.30
2023-02-09T04:23:45.725Z,-0.30
2023-02-09T04:26:12.955Z,-0.40
2023-02-09T04:28:39.716Z,-0.40
2023-02-09T04:31:06.788Z,-0.40
2023-02-09T04:33:33.588Z,-0.40
2023-02-09T04:36:00.487Z,-0.40
2023-02-09T04:38:27.365Z,-0.40
2023-02-09T04:40:58.057Z,-0.40
2023-02-09T04:43:24.780Z,-0.40
2023-02-09T04:45:51.878Z,-0.40
2023-02-09T04:48:21.969Z,-0.50
2023-02-09T04:50:49.288Z,-0.50
2023-02-09T04:53:16.777Z,-0.50
2023-02-09T04:55:46.303Z,-0.50
2023-02-09T04:58:36.755Z,-0.50
2023-02-09T05:01:05.331Z,-0.50
2023-02-09T05:03:32.514Z,-0.50
2023-02-09T05:06:05.114Z,-0.50
2023-02-09T05:08:32.101Z,-0.50
2023-02-09T05:10:59.076Z,-0.50
2023-02-09T05:13:27.180Z,-0.50
2023-02-09T05:15:54.526Z,-0.50
2023-02-09T05:18:22.342Z,-0.60
2023-02-09T05:20:50.206Z,-0.60
2023-02-09T05:23:17.482Z,-0.60
2023-02-09T05:25:45.753Z,-0.60
2023-02-09T05:28:12.867Z,-0.70
2023-02-09T05:30:39.676Z,-0.70
2023-02-09T05:33:06.582Z,-0.60
2023-02-09T05:35:33.424Z,-0.70
2023-02-09T05:38:00.173Z,-0.70
2023-02-09T05:40:26.967Z,-0.70
2023-02-09T05:42:53.713Z,-0.70
2023-02-09T05:45:20.790Z,-0.70
2023-02-09T05:47:47.557Z,-0.80
2023-02-09T05:50:14.800Z,-0.70
2023-02-09T05:52:41.500Z,-0.80
2023-02-09T05:55:08.376Z,-0.80
2023-02-09T05:57:35.135Z,-0.80
2023-02-09T06:00:03.655Z,-0.80
2023-02-09T06:02:30.449Z,-0.80
2023-02-09T06:04:57.201Z,-0.90
2023-02-09T06:07:23.915Z,-0.90
2023-02-09T06:09:50.655Z,-0.90
2023-02-09T06:12:17.397Z,-0.90
2023-02-09T06:14:44.137Z,-1.00
2023-02-09T06:17:10.908Z,-1.00
2023-02-09T06:19:37.637Z,-1.00
2023-02-09T06:22:04.376Z,-1.10
2023-02-09T06:24:31.114Z,-1.10
2023-02-09T06:26:57.858Z,-1.10
2023-02-09T06:29:24.630Z,-1.10
2023-02-09T06:31:51.666Z,-1.10
2023-02-09T06:34:18.435Z,-1.10
2023-02-09T06:36:45.147Z,-1.10
2023-02-09T06:39:11.912Z,-1.10
2023-02-09T06:41:38.722Z,-1.10
2023-02-09T06:44:05.787Z,-1.10
2023-02-09T06:46:33.655Z,-1.10
2023-02-09T06:49:00.452Z,-1.10
2023-02-09T06:51:27.263Z,-1.20
2023-02-09T06:53:54.227Z,-1.20
2023-02-09T06:56:20.948Z,-1.20
2023-02-09T06:58:47.811Z,-1.20
2023-02-09T07:01:16.149Z,-1.20
2023-02-09T07:03:44.483Z,-1.20
2023-02-09T07:06:16.064Z,-1.20
2023-02-09T07:08:44.689Z,-1.20
2023-02-09T07:11:17.257Z,-1.20
2023-02-09T07:13:44.897Z,-1.10
2023-02-09T07:16:13.021Z,-1.10
2023-02-09T07:18:40.546Z,-1.00
2023-02-09T07:21:19.899Z,-0.80
2023-02-09T07:23:48.470Z,-0.60
2023-02-09T07:26:18.347Z,-0.40
2023-02-09T07:28:45.332Z,0.00
2023-02-09T07:31:15.021Z,0.40
2023-02-09T07:33:42.254Z,0.80
2023-02-09T07:36:13.408Z,1.40
2023-02-09T07:38:40.853Z,1.90
2023-02-09T07:41:15.373Z,2.50
2023-02-09T07:43:42.450Z,3.10
2023-02-09T07:46:10.129Z,3.70
2023-02-09T07:48:37.786Z,4.40
2023-02-09T07:51:05.303Z,5.00
2023-02-09T07:53:33.159Z,5.60
2023-02-09T07:55:59.947Z,6.20
2023-02-09T07:58:26.741Z,6.70
2023-02-09T08:00:53.519Z,7.20
2023-02-09T08:03:23.781Z,7.80
2023-02-09T08:06:10.546Z,8.30
2023-02-09T08:08:37.300Z,8.80
2023-02-09T08:11:05.458Z,9.20
2023-02-09T08:13:38.047Z,9.60
2023-02-09T08:16:09.755Z,10.00
2023-02-09T08:18:41.728Z,10.40
2023-02-09T08:21:12.903Z,10.80
2023-02-09T08:23:43.086Z,11.20
2023-02-09T08:26:13.244Z,11.60
2023-02-09T08:28:45.371Z,12.00
2023-02-09T08:31:15.833Z,12.40
2023-02-09T08:33:44.459Z,12.90
2023-02-09T08:36:13.051Z,13.30
2023-02-09T08:38:39.965Z,13.70
2023-02-09T08:41:10.157Z,14.00
2023-02-09T08:43:36.993Z,14.40
2023-02-09T08:46:11.715Z,14.90
2023-02-09T08:48:43.318Z,15.20
2023-02-09T08:51:12.665Z,15.50
2023-02-09T08:53:40.028Z,15.90
2023-02-09T08:56:07.246Z,16.10
2023-02-09T08:58:34.844Z,16.40
2023-02-09T09:01:01.660Z,16.70
2023-02-09T09:03:31.510Z,17.00
2023-02-09T09:06:05.160Z,17.30
2023-02-09T09:08:34.620Z,17.50
2023-02-09T09:11:02.267Z,17.70
2023-02-09T09:13:29.189Z,18.00
2023-02-09T09:15:56.405Z,18.20
2023-02-09T09:18:24.928Z,18.40
2023-02-09T09:20:52.963Z,18.60
2023-02-09T09:23:21.067Z,18.80
2023-02-09T09:25:48.619Z,19.20
2023-02-09T09:28:16.441Z,19.10
2023-02-09T09:30:43.776Z,19.30
2023-02-09T09:33:10.620Z,19.40
2023-02-09T09:35:37.707Z,19.60
2023-02-09T09:38:04.658Z,19.80
2023-02-09T09:40:36.113Z,19.90
2023-02-09T09:43:08.648Z,20.10
2023-02-09T09:45:39.358Z,20.20
2023-02-09T09:48:26.412Z,20.20
2023-02-09T09:51:00.758Z,20.20
2023-02-09T09:53:33.505Z,19.90
2023-02-09T09:56:08.697Z,20.00
2023-02-09T09:58:40.749Z,19.90
2023-02-09T10:01:14.250Z,19.90
2023-02-09T10:03:41.115Z,19.90
2023-02-09T10:06:34.103Z,20.00
2023-02-09T10:09:22.643Z,20.10
2023-02-09T10:12:11.865Z,20.20
2023-02-09T10:14:38.564Z,20.30
2023-02-09T10:17:06.470Z,20.50
2023-02-09T10:19:33.928Z,20.60
2023-02-09T10:22:00.872Z,20.80
2023-02-09T10:24:33.837Z,20.90
2023-02-09T10:27:20.755Z,21.10
2023-02-09T10:29:48.027Z,21.10
2023-02-09T10:32:19.287Z,21.10
2023-02-09T10:34:52.714Z,21.30
2023-02-09T10:37:57.917Z,21.30
2023-02-09T10:40:32.607Z,21.00
2023-02-09T10:43:20.908Z,20.90
2023-02-09T10:45:59.045Z,20.80
2023-02-09T10:48:29.023Z,20.70
2023-02-09T10:51:12.700Z,20.60
2023-02-09T10:54:02.017Z,20.50
2023-02-09T10:56:43.662Z,20.40
2023-02-09T10:59:22.877Z,20.30
2023-02-09T11:01:58.273Z,20.20
2023-02-09T11:04:40.490Z,20.40
2023-02-09T11:07:17.749Z,20.00
2023-02-09T11:09:51.585Z,20.00
2023-02-09T11:12:22.532Z,20.00
2023-02-09T11:14:49.557Z,19.90
2023-02-09T11:17:41.184Z,19.90
2023-02-09T11:20:51.162Z,19.70
2023-02-09T11:23:44.520Z,19.80
2023-02-09T11:26:30.073Z,19.80
2023-02-09T11:29:17.117Z,19.80
2023-02-09T11:32:17.571Z,19.90
2023-02-09T11:35:10.071Z,20.00
2023-02-09T11:38:01.601Z,20.10
2023-02-09T11:40:42.658Z,20.10
2023-02-09T11:43:18.732Z,20.20
2023-02-09T11:45:51.218Z,20.10
2023-02-09T11:48:30.128Z,20.10
2023-02-09T11:51:15.162Z,20.10
2023-02-09T11:53:51.511Z,20.00
2023-02-09T11:56:25.681Z,20.00
2023-02-09T11:59:19.950Z,20.00
2023-02-09T12:02:46.409Z,20.00
2023-02-09T12:05:19.678Z,19.90
2023-02-09T12:08:26.915Z,19.90
2023-02-09T12:11:18.109Z,19.80
2023-02-09T12:14:37.761Z,19.80
2023-02-09T12:17:18.888Z,19.70
2023-02-09T12:20:00.259Z,19.50
2023-02-09T12:22:36.097Z,19.40
2023-02-09T12:25:12.083Z,19.20
2023-02-09T12:28:03.611Z,19.10
2023-02-09T12:30:42.766Z,19.00
2023-02-09T12:33:25.218Z,18.80
2023-02-09T12:36:02.693Z,18.60
2023-02-09T12:38:51.537Z,18.50
2023-02-09T12:41:35.444Z,18.30
2023-02-09T12:44:10.893Z,18.10
2023-02-09T12:46:53.405Z,17.90
2023-02-09T12:49:33.452Z,17.70
2023-02-09T12:52:02.963Z,17.60
2023-02-09T12:54:40.591Z,17.40
2023-02-09T12:57:16.236Z,17.30
2023-02-09T13:00:00.689Z,17.10
2023-02-09T13:02:42.859Z,17.00
2023-02-09T13:05:30.674Z,16.70
2023-02-09T13:08:13.179Z,16.60
2023-02-09T13:10:42.736Z,16.40
2023-02-09T13:13:12.220Z,16.30
2023-02-09T13:16:29.319Z,16.10
2023-02-09T13:19:21.037Z,16.00
2023-02-09T13:22:21.941Z,15.90
2023-02-09T13:25:00.445Z,15.70
2023-02-09T13:27:30.063Z,15.60
2023-02-09T13:29:59.477Z,15.50
2023-02-09T13:33:32.142Z,15.30
2023-02-09T13:36:16.250Z,15.20
2023-02-09T13:38:49.879Z,15.00
2023-02-09T13:41:37.123Z,14.90
2023-02-09T13:44:18.344Z,14.70
2023-02-09T13:46:57.517Z,14.60
2023-02-09T13:49:27.773Z,14.50
2023-02-09T13:52:22.081Z,14.30
2023-02-09T13:54:49.520Z,14.20
2023-02-09T13:57:36.120Z,14.10
2023-02-09T14:00:15.383Z,13.90
2023-02-09T14:02:49.815Z,13.80
2023-02-09T14:05:48.188Z,13.70
2023-02-09T14:08:18.771Z,13.60
2023-02-09T14:10:56.591Z,13.50
2023-02-09T14:13:36.881Z,13.40
2023-02-09T14:16:06.790Z,13.20
2023-02-09T14:18:52.954Z,13.20
2023-02-09T14:21:31.067Z,13.00
2023-02-09T14:24:00.882Z,12.80
2023-02-09T14:26:51.853Z,12.80
2023-02-09T14:29:37.523Z,12.70
2023-02-09T14:32:38.090Z,12.60
2023-02-09T14:35:44.257Z,12.40
2023-02-09T14:38:36.765Z,12.30
2023-02-09T14:41:32.383Z,12.30
2023-02-09T14:44:07.369Z,12.20
2023-02-09T14:46:56.074Z,12.10
2023-02-09T14:49:23.811Z,12.00
2023-02-09T14:52:01.579Z,11.90
2023-02-09T14:54:33.093Z,12.30
2023-02-09T14:57:01.110Z,11.80
2023-02-09T14:59:28.017Z,11.70
2023-02-09T15:01:55.367Z,11.60
2023-02-09T15:04:22.171Z,11.60
2023-02-09T15:07:02.854Z,11.50
2023-02-09T15:09:36.773Z,11.50
2023-02-09T15:12:06.004Z,11.40
2023-02-09T15:14:44.716Z,11.40
2023-02-09T15:17:20.772Z,11.30
2023-02-09T15:19:48.172Z,11.20
2023-02-09T15:22:16.969Z,11.20
2023-02-09T15:24:46.687Z,11.10
2023-02-09T15:27:31.994Z,11.00
2023-02-09T15:30:01.682Z,11.00
2023-02-09T15:32:29.784Z,10.90
2023-02-09T15:34:56.567Z,10.80
2023-02-09T15:37:32.996Z,10.80
2023-02-09T15:40:40.856Z,10.70
2023-02-09T15:43:32.216Z,10.70
2023-02-09T15:46:17.911Z,10.60
2023-02-09T15:48:44.798Z,10.50
2023-02-09T15:51:11.822Z,10.50
2023-02-09T15:53:39.061Z,10.40
2023-02-09T15:56:08.049Z,10.30
2023-02-09T15:58:39.497Z,10.20
2023-02-09T16:01:06.799Z,10.10
2023-02-09T16:03:33.640Z,10.10
2023-02-09T16:06:07.317Z,10.00
2023-02-09T16:08:35.419Z,9.90
2023-02-09T16:11:02.792Z,9.80
2023-02-09T16:13:29.531Z,9.70
2023-02-09T16:16:05.121Z,9.60
2023-02-09T16:18:37.943Z,9.50
2023-02-09T16:21:07.080Z,9.50
2023-02-09T16:23:35.048Z,9.30
2023-02-09T16:26:05.108Z,9.30
2023-02-09T16:28:31.934Z,9.20
2023-02-09T16:30:58.794Z,9.10
2023-02-09T16:33:26.544Z,9.20
2023-02-09T16:35:55.994Z,8.90
2023-02-09T16:38:24.962Z,8.80
2023-02-09T16:40:54.067Z,8.70
2023-02-09T16:43:22.491Z,8.60
2023-02-09T16:46:02.748Z,8.50
2023-02-09T16:48:34.321Z,8.40
2023-02-09T16:51:01.129Z,8.30
2023-02-09T16:53:36.684Z,8.20
2023-02-09T16:56:10.017Z,8.10
2023-02-09T16:58:37.480Z,8.00
2023-02-09T17:01:16.796Z,7.90
2023-02-09T17:03:48.037Z,7.70
2023-02-09T17:06:25.270Z,7.70
2023-02-09T17:08:53.195Z,7.50
2023-02-09T17:11:24.679Z,7.50
2023-02-09T17:13:51.482Z,7.40
2023-02-09T17:16:34.190Z,7.40
2023-02-09T17:19:04.688Z,7.30
2023-02-09T17:21:38.000Z,7.20
2023-02-09T17:24:11.634Z,7.10
2023-02-09T17:26:39.964Z,7.00
2023-02-09T17:29:07.358Z,7.00
2023-02-09T17:31:50.780Z,6.90
2023-02-09T17:34:20.221Z,6.80
2023-02-09T17:36:47.060Z,6.70
2023-02-09T17:39:13.992Z,6.60
2023-02-09T17:41:46.455Z,6.60
2023-02-09T17:44:39.595Z,6.50
2023-02-09T17:47:16.820Z,6.50
2023-02-09T17:49:44.032Z,6.40
2023-02-09T17:52:30.374Z,6.30
2023-02-09T17:54:57.422Z,6.30
2023-02-09T17:57:27.447Z,6.20
2023-02-09T17:59:54.261Z,6.20
2023-02-09T18:02:21.299Z,6.10
2023-02-09T18:04:48.109Z,6.10
2023-02-09T18:07:20.832Z,6.00
2023-02-09T18:09:47.783Z,6.00
2023-02-09T18:12:21.260Z,6.00
2023-02-09T18:14:48.200Z,5.90
2023-02-09T18:17:15.092Z,5.90
2023-02-09T18:19:41.871Z,5.90
2023-02-09T18:22:16.868Z,5.90
2023-02-09T18:24:44.033Z,5.90
2023-02-09T18:27:18.591Z,5.90
2023-02-09T18:29:45.527Z,6.00
2023-02-09T18:32:16.464Z,6.00
2023-02-09T18:34:43.801Z,6.00
2023-02-09T18:37:10.535Z,6.00
2023-02-09T18:39:40.631Z,6.60
2023-02-09T18:42:07.388Z,6.10
2023-02-09T18:44:34.266Z,6.10
2023-02-09T18:47:01.879Z,6.10
2023-02-09T18:49:29.812Z,6.20
2023-02-09T18:51:58.656Z,6.20
2023-02-09T18:54:27.169Z,6.30
2023-02-09T18:56:55.424Z,6.40
2023-02-09T18:59:22.176Z,6.40
2023-02-09T19:01:50.352Z,6.40
2023-02-09T19:04:17.142Z,6.40
2023-02-09T19:06:43.885Z,6.50
2023-02-09T19:09:10.656Z,6.50
2023-02-09T19:11:37.661Z,6.50
2023-02-09T19:14:23.780Z,6.50
2023-02-09T19:16:50.946Z,6.50
2023-02-09T19:19:19.151Z,6.60
2023-02-09T19:21:47.680Z,6.60
2023-02-09T19:24:14.808Z,6.60
2023-02-09T19:26:42.049Z,6.60
2023-02-09T19:29:09.039Z,6.70
2023-02-09T19:31:37.230Z,6.70
2023-02-09T19:34:04.277Z,6.70
2023-02-09T19:36:31.060Z,6.70
2023-02-09T19:38:57.861Z,6.70
2023-02-09T19:41:25.630Z,6.70
2023-02-09T19:43:58.983Z,6.70
2023-02-09T19:46:25.934Z,6.70
2023-02-09T19:48:55.951Z,6.80
2023-02-09T19:51:23.369Z,6.70
2023-02-09T19:53:50.883Z,6.80
2023-02-09T19:56:20.769Z,6.40
2023-02-09T19:58:47.577Z,6.80
2023-02-09T20:01:14.373Z,6.80
2023-02-09T20:03:41.341Z,7.00
2023-02-09T20:06:12.026Z,6.80
2023-02-09T20:08:39.860Z,6.80
2023-02-09T20:11:09.813Z,6.80
2023-02-09T20:13:37.619Z,6.80
2023-02-09T20:16:14.385Z,6.80
2023-02-09T20:18:41.281Z,6.80
2023-02-09T20:21:09.768Z,6.80
2023-02-09T20:23:37.415Z,6.80
2023-02-09T20:26:28.952Z,6.80
2023-02-09T20:28:57.300Z,6.80
2023-02-09T20:31:29.708Z,6.80
2023-02-09T20:33:56.636Z,6.80
2023-02-09T20:36:25.525Z,6.80
2023-02-09T20:38:52.493Z,6.80
2023-02-09T20:41:19.319Z,6.70
2023-02-09T20:44:04.717Z,6.70
2023-02-09T20:46:51.736Z,6.70
2023-02-09T20:49:19.391Z,6.70
2023-02-09T20:51:46.987Z,6.70
2023-02-09T20:54:14.530Z,6.70
2023-02-09T20:56:41.812Z,6.70
2023-02-09T20:59:08.969Z,6.70
2023-02-09T21:01:39.808Z,6.70
2023-02-09T21:04:07.415Z,6.70
2023-02-09T21:06:37.093Z,6.70
2023-02-09T21:09:08.962Z,6.70
2023-02-09T21:11:35.721Z,6.70
2023-02-09T21:14:02.578Z,6.70
2023-02-09T21:16:30.811Z,6.70
2023-02-09T21:18:58.533Z,6.70
2023-02-09T21:21:29.414Z,6.60
2023-02-09T21:23:56.210Z,6.70
2023-02-09T21:26:24.439Z,6.60
2023-02-09T21:28:56.004Z,6.20
2023-02-09T21:31:26.884Z,6.60
2023-02-09T21:33:53.889Z,6.60
2023-02-09T21:36:20.627Z,6.60
2023-02-09T21:38:47.464Z,6.60
2023-02-09T21:41:38.875Z,6.60
2023-02-09T21:44:07.392Z,6.60
2023-02-09T21:46:34.444Z,6.60
2023-02-09T21:49:01.429Z,6.50
2023-02-09T21:51:28.275Z,6.50
2023-02-09T21:53:55.411Z,6.50
2023-02-09T21:56:22.459Z,6.50
2023-02-09T21:58:49.241Z,6.50
2023-02-09T22:01:16.007Z,6.50
2023-02-09T22:03:48.257Z,6.50
2023-02-09T22:06:15.279Z,6.50
2023-02-09T22:08:42.030Z,6.50
2023-02-09T22:11:08.761Z,6.50
2023-02-09T22:13:35.541Z,6.50
2023-02-09T22:16:07.456Z,6.50
2023-02-09T22:18:35.082Z,6.50
2023-02-09T22:21:07.476Z,6.50
2023-02-09T22:23:34.340Z,6.50
2023-02-09T22:26:05.458Z,6.50
2023-02-09T22:28:36.033Z,6.50
2023-02-09T22:31:16.502Z,6.50
2023-02-09T22:33:44.164Z,6.50
2023-02-09T22:36:18.208Z,6.50
2023-02-09T22:38:45.269Z,6.50
2023-02-09T22:41:22.478Z,6.50
2023-02-09T22:43:52.333Z,6.50
2023-02-09T22:46:49.501Z,6.50
2023-02-09T22:49:19.965Z,6.50
2023-02-09T22:51:48.813Z,6.50
2023-02-09T22:54:18.329Z,6.50
2023-02-09T22:56:45.383Z,6.50
2023-02-09T22:59:14.799Z,6.50
2023-02-09T23:01:42.551Z,6.50
2023-02-09T23:04:09.730Z,6.50
2023-02-09T23:06:36.612Z,6.50
2023-02-09T23:09:07.399Z,6.50
2023-02-09T23:11:35.455Z,6.50
2023-02-09T23:14:09.576Z,6.50
2023-02-09T23:16:39.486Z,6.50
2023-02-09T23:19:09.392Z,6.50
2023-02-09T23:21:40.724Z,6.50
2023-02-09T23:24:08.593Z,6.50
2023-02-09T23:26:36.357Z,6.50
2023-02-09T23:29:07.234Z,6.50
2023-02-09T23:31:34.528Z,6.60
2023-02-09T23:34:01.336Z,6.60
2023-02-09T23:36:31.744Z,6.60
2023-02-09T23:39:05.232Z,6.60
2023-02-09T23:41:32.332Z,6.60
2023-02-09T23:43:59.653Z,6.60
2023-02-09T23:46:29.101Z,6.60
2023-02-09T23:48:57.268Z,6.60
2023-02-09T23:51:30.823Z,6.60
2023-02-09T23:54:01.513Z,6.60
2023-02-09T23:56:33.084Z,6.60
2023-02-09T23:58:59.799Z,6.60
